sensor_id;sensor_type;location;lat;lon;timestamp;pressure;altitude;pressure_sealevel;temperature
60936;BMP280;46804;51.786;19.520;2023-08-24T00:03:36;159090.88;;;19.04
60936;BMP280;46804;51.786;19.520;2023-08-24T00:07:37;159077.97;;;18.99
60936;BMP280;46804;51.786;19.520;2023-08-24T00:11:38;159076.66;;;18.99
60936;BMP280;46804;51.786;19.520;2023-08-24T00:15:39;159055.97;;;18.91
60936;BMP280;46804;51.786;19.520;2023-08-24T00:19:39;159066.34;;;18.95
60936;BMP280;46804;51.786;19.520;2023-08-24T00:23:40;159017.22;;;18.76
60936;BMP280;46804;51.786;19.520;2023-08-24T00:27:41;159034.03;;;18.82
60936;BMP280;46804;51.786;19.520;2023-08-24T00:31:41;159023.69;;;18.78
60936;BMP280;46804;51.786;19.520;2023-08-24T00:35:43;159008.19;;;18.72
60936;BMP280;46804;51.786;19.520;2023-08-24T00:39:43;159003.06;;;18.71
60936;BMP280;46804;51.786;19.520;2023-08-24T00:43:44;158982.38;;;18.63
60936;BMP280;46804;51.786;19.520;2023-08-24T00:47:46;158937.22;;;18.45
60936;BMP280;46804;51.786;19.520;2023-08-24T00:51:47;158912.72;;;18.36
60936;BMP280;46804;51.786;19.520;2023-08-24T00:55:48;158910.09;;;18.35
60936;BMP280;46804;51.786;19.520;2023-08-24T00:59:48;158831.34;;;18.05
60936;BMP280;46804;51.786;19.520;2023-08-24T01:03:49;158791.34;;;17.90
60936;BMP280;46804;51.786;19.520;2023-08-24T01:07:50;158788.78;;;17.89
60936;BMP280;46804;51.786;19.520;2023-08-24T01:12:02;158797.84;;;17.92
60936;BMP280;46804;51.786;19.520;2023-08-24T01:16:18;158796.50;;;17.92
60936;BMP280;46804;51.786;19.520;2023-08-24T01:20:20;158806.84;;;17.96
60936;BMP280;46804;51.786;19.520;2023-08-24T01:24:31;158787.50;;;17.88
60936;BMP280;46804;51.786;19.520;2023-08-24T01:28:36;158779.72;;;17.85
60936;BMP280;46804;51.786;19.520;2023-08-24T01:32:38;158760.41;;;17.78
60936;BMP280;46804;51.786;19.520;2023-08-24T01:36:38;158751.34;;;17.74
60936;BMP280;46804;51.786;19.520;2023-08-24T01:40:48;158728.13;;;17.66
60936;BMP280;46804;51.786;19.520;2023-08-24T01:44:52;158686.88;;;17.50
60936;BMP280;46804;51.786;19.520;2023-08-24T01:48:55;158655.94;;;17.38
60936;BMP280;46804;51.786;19.520;2023-08-24T01:52:57;158661.06;;;17.40
60936;BMP280;46804;51.786;19.520;2023-08-24T01:56:57;158654.63;;;17.37
60936;BMP280;46804;51.786;19.520;2023-08-24T02:00:58;158657.22;;;17.38
60936;BMP280;46804;51.786;19.520;2023-08-24T02:04:59;158654.63;;;17.37
60936;BMP280;46804;51.786;19.520;2023-08-24T02:08:59;158648.19;;;17.35
60936;BMP280;46804;51.786;19.520;2023-08-24T02:13:00;158654.63;;;17.37
60936;BMP280;46804;51.786;19.520;2023-08-24T02:17:00;158628.84;;;17.28
60936;BMP280;46804;51.786;19.520;2023-08-24T02:21:07;158617.25;;;17.23
60936;BMP280;46804;51.786;19.520;2023-08-24T02:25:09;158632.75;;;17.29
60936;BMP280;46804;51.786;19.520;2023-08-24T02:29:10;158628.84;;;17.28
60936;BMP280;46804;51.786;19.520;2023-08-24T02:33:11;158592.72;;;17.14
60936;BMP280;46804;51.786;19.520;2023-08-24T02:37:12;158587.56;;;17.12
60936;BMP280;46804;51.786;19.520;2023-08-24T02:41:12;158545.00;;;16.96
60936;BMP280;46804;51.786;19.520;2023-08-24T02:45:15;158498.59;;;16.78
60936;BMP280;46804;51.786;19.520;2023-08-24T02:49:15;158514.06;;;16.84
60936;BMP280;46804;51.786;19.520;2023-08-24T02:53:16;158537.25;;;16.93
60936;BMP280;46804;51.786;19.520;2023-08-24T02:57:16;158545.00;;;16.96
60936;BMP280;46804;51.786;19.520;2023-08-24T03:01:17;158550.16;;;16.98
60936;BMP280;46804;51.786;19.520;2023-08-24T03:05:18;158557.88;;;17.00
60936;BMP280;46804;51.786;19.520;2023-08-24T03:09:19;158541.09;;;16.94
60936;BMP280;46804;51.786;19.520;2023-08-24T03:13:20;158529.50;;;16.90
60936;BMP280;46804;51.786;19.520;2023-08-24T03:17:21;158508.91;;;16.82
60936;BMP280;46804;51.786;19.520;2023-08-24T03:21:21;158502.47;;;16.79
60936;BMP280;46804;51.786;19.520;2023-08-24T03:25:22;158495.97;;;16.77
60936;BMP280;46804;51.786;19.520;2023-08-24T03:29:22;158477.94;;;16.70
60936;BMP280;46804;51.786;19.520;2023-08-24T03:33:23;158474.13;;;16.68
60936;BMP280;46804;51.786;19.520;2023-08-24T03:37:24;158468.94;;;16.66
60936;BMP280;46804;51.786;19.520;2023-08-24T03:41:24;158454.75;;;16.61
60936;BMP280;46804;51.786;19.520;2023-08-24T03:45:25;158454.75;;;16.61
60936;BMP280;46804;51.786;19.520;2023-08-24T03:49:25;158443.16;;;16.57
60936;BMP280;46804;51.786;19.520;2023-08-24T03:53:26;158443.16;;;16.57
60936;BMP280;46804;51.786;19.520;2023-08-24T03:57:27;158430.28;;;16.52
60936;BMP280;46804;51.786;19.520;2023-08-24T04:01:28;158448.31;;;16.59
60936;BMP280;46804;51.786;19.520;2023-08-24T04:05:29;158429.00;;;16.51
60936;BMP280;46804;51.786;19.520;2023-08-24T04:09:29;158421.22;;;16.48
60936;BMP280;46804;51.786;19.520;2023-08-24T04:13:30;158448.31;;;16.59
60936;BMP280;46804;51.786;19.520;2023-08-24T04:17:31;158448.31;;;16.59
60936;BMP280;46804;51.786;19.520;2023-08-24T04:21:31;158475.38;;;16.69
60936;BMP280;46804;51.786;19.520;2023-08-24T04:25:32;158485.72;;;16.73
60936;BMP280;46804;51.786;19.520;2023-08-24T04:29:32;158495.97;;;16.77
60936;BMP280;46804;51.786;19.520;2023-08-24T04:33:33;158515.34;;;16.84
60936;BMP280;46804;51.786;19.520;2023-08-24T04:37:34;158547.59;;;16.97
60936;BMP280;46804;51.786;19.520;2023-08-24T04:41:35;158557.88;;;17.00
60936;BMP280;46804;51.786;19.520;2023-08-24T04:45:35;158572.06;;;17.06
60936;BMP280;46804;51.786;19.520;2023-08-24T04:49:36;158586.22;;;17.11
60936;BMP280;46804;51.786;19.520;2023-08-24T04:53:37;158612.09;;;17.21
60936;BMP280;46804;51.786;19.520;2023-08-24T04:57:38;158639.19;;;17.32
60936;BMP280;46804;51.786;19.520;2023-08-24T05:01:39;158675.28;;;17.45
60936;BMP280;46804;51.786;19.520;2023-08-24T05:05:40;158697.22;;;17.54
60936;BMP280;46804;51.786;19.520;2023-08-24T05:09:40;158730.75;;;17.67
60936;BMP280;46804;51.786;19.520;2023-08-24T05:13:41;158741.06;;;17.70
60936;BMP280;46804;51.786;19.520;2023-08-24T05:17:42;158773.28;;;17.83
60936;BMP280;46804;51.786;19.520;2023-08-24T05:21:42;158805.56;;;17.95
60936;BMP280;46804;51.786;19.520;2023-08-24T05:25:43;158828.78;;;18.04
60936;BMP280;46804;51.786;19.520;2023-08-24T05:29:44;158875.28;;;18.22
60936;BMP280;46804;51.786;19.520;2023-08-24T05:33:44;158919.16;;;18.38
60936;BMP280;46804;51.786;19.520;2023-08-24T05:37:45;158956.56;;;18.53
60936;BMP280;46804;51.786;19.520;2023-08-24T05:41:46;158984.94;;;18.64
60936;BMP280;46804;51.786;19.520;2023-08-24T05:45:48;159030.13;;;18.81
60936;BMP280;46804;51.786;19.520;2023-08-24T05:49:49;159105.03;;;19.09
60936;BMP280;46804;51.786;19.520;2023-08-24T05:53:49;159145.06;;;19.25
60936;BMP280;46804;51.786;19.520;2023-08-24T05:57:50;159196.78;;;19.44
60936;BMP280;46804;51.786;19.520;2023-08-24T06:01:51;159204.50;;;19.47
60936;BMP280;46804;51.786;19.520;2023-08-24T06:05:52;159247.09;;;19.64
60936;BMP280;46804;51.786;19.520;2023-08-24T06:09:53;159300.13;;;19.84
60936;BMP280;46804;51.786;19.520;2023-08-24T06:13:54;159350.47;;;20.03
60936;BMP280;46804;51.786;19.520;2023-08-24T06:17:55;159416.38;;;20.28
60936;BMP280;46804;51.786;19.520;2023-08-24T06:21:56;159470.69;;;20.49
60936;BMP280;46804;51.786;19.520;2023-08-24T06:25:56;159548.25;;;20.78
60936;BMP280;46804;51.786;19.520;2023-08-24T06:29:57;159620.66;;;21.06
60936;BMP280;46804;51.786;19.520;2023-08-24T06:33:58;159669.75;;;21.25
60936;BMP280;46804;51.786;19.520;2023-08-24T06:38:00;159784.94;;;21.69
60936;BMP280;46804;51.786;19.520;2023-08-24T06:42:00;159743.50;;;21.53
60936;BMP280;46804;51.786;19.520;2023-08-24T06:46:03;159803.03;;;21.76
60936;BMP280;46804;51.786;19.520;2023-08-24T06:50:03;159903.94;;;22.14
60936;BMP280;46804;51.786;19.520;2023-08-24T06:54:04;160087.75;;;22.84
60936;BMP280;46804;51.786;19.520;2023-08-24T06:58:05;160211.97;;;23.31
60936;BMP280;46804;51.786;19.520;2023-08-24T07:02:06;160270.28;;;23.53
60936;BMP280;46804;51.786;19.520;2023-08-24T07:06:08;160246.94;;;23.45
60936;BMP280;46804;51.786;19.520;2023-08-24T07:10:08;160319.50;;;23.72
60936;BMP280;46804;51.786;19.520;2023-08-24T07:14:09;160360.94;;;23.88
60936;BMP280;46804;51.786;19.520;2023-08-24T07:18:10;160412.72;;;24.08
60936;BMP280;46804;51.786;19.520;2023-08-24T07:22:11;160390.75;;;23.99
60936;BMP280;46804;51.786;19.520;2023-08-24T07:26:12;160320.78;;;23.73
60936;BMP280;46804;51.786;19.520;2023-08-24T07:30:13;160559.19;;;24.63
60936;BMP280;46804;51.786;19.520;2023-08-24T07:34:14;160719.91;;;25.24
60936;BMP280;46804;51.786;19.520;2023-08-24T07:38:16;160764.00;;;25.41
60936;BMP280;46804;51.786;19.520;2023-08-24T07:42:19;161053.22;;;26.51
60936;BMP280;46804;51.786;19.520;2023-08-24T07:46:20;161242.69;;;27.23
60936;BMP280;46804;51.786;19.520;2023-08-24T07:50:21;161090.88;;;26.65
60936;BMP280;46804;51.786;19.520;2023-08-24T07:54:23;161137.63;;;26.83
60936;BMP280;46804;51.786;19.520;2023-08-24T07:58:24;160935.19;;;26.06
60936;BMP280;46804;51.786;19.520;2023-08-24T08:02:25;160968.97;;;26.19
60936;BMP280;46804;51.786;19.520;2023-08-24T08:06:26;161097.34;;;26.68
60936;BMP280;46804;51.786;19.520;2023-08-24T08:10:27;160954.63;;;26.14
60936;BMP280;46804;51.786;19.520;2023-08-24T08:14:28;160957.25;;;26.15
60936;BMP280;46804;51.786;19.520;2023-08-24T08:18:28;160981.91;;;26.24
60936;BMP280;46804;51.786;19.520;2023-08-24T08:22:30;160963.78;;;26.17
60936;BMP280;46804;51.786;19.520;2023-08-24T08:26:36;161124.66;;;26.78
60936;BMP280;46804;51.786;19.520;2023-08-24T08:30:37;161109.03;;;26.72
60936;BMP280;46804;51.786;19.520;2023-08-24T08:34:38;161442.66;;;27.99
60936;BMP280;46804;51.786;19.520;2023-08-24T08:38:38;161734.91;;;29.10
60936;BMP280;46804;51.786;19.520;2023-08-24T08:42:39;161768.72;;;29.23
60936;BMP280;46804;51.786;19.520;2023-08-24T08:46:41;161794.75;;;29.33
60936;BMP280;46804;51.786;19.520;2023-08-24T08:50:42;162067.72;;;30.36
60936;BMP280;46804;51.786;19.520;2023-08-24T08:54:43;161805.13;;;29.37
60936;BMP280;46804;51.786;19.520;2023-08-24T08:58:44;162128.81;;;30.59
60936;BMP280;46804;51.786;19.520;2023-08-24T09:02:46;162611.56;;;32.42
60936;BMP280;46804;51.786;19.520;2023-08-24T09:06:48;162650.63;;;32.57
60936;BMP280;46804;51.786;19.520;2023-08-24T09:10:49;162378.63;;;31.54
60936;BMP280;46804;51.786;19.520;2023-08-24T09:14:50;162203.00;;;30.87
60936;BMP280;46804;51.786;19.520;2023-08-24T09:18:51;162076.84;;;30.40
60936;BMP280;46804;51.786;19.520;2023-08-24T09:22:52;162199.06;;;30.86
60936;BMP280;46804;51.786;19.520;2023-08-24T09:26:55;162477.53;;;31.91
60936;BMP280;46804;51.786;19.520;2023-08-24T09:31:00;162733.94;;;32.88
60936;BMP280;46804;51.786;19.520;2023-08-24T09:35:03;162747.00;;;32.93
60936;BMP280;46804;51.786;19.520;2023-08-24T09:39:06;160750.56;;;34.73
60936;BMP280;46804;51.786;19.520;2023-08-24T09:43:12;154627.81;;;35.92
60936;BMP280;46804;51.786;19.520;2023-08-24T09:47:13;156186.06;;;35.66
60936;BMP280;46804;51.786;19.520;2023-08-24T09:51:14;159273.00;;;35.09
60936;BMP280;46804;51.786;19.520;2023-08-24T09:55:19;154545.09;;;35.90
60936;BMP280;46804;51.786;19.520;2023-08-24T09:59:23;159078.34;;;35.14
60936;BMP280;46804;51.786;19.520;2023-08-24T10:03:27;162724.88;;;32.85
60936;BMP280;46804;51.786;19.520;2023-08-24T10:07:29;162714.44;;;32.81
60936;BMP280;46804;51.786;19.520;2023-08-24T10:11:34;162937.13;;;33.65
60936;BMP280;46804;51.786;19.520;2023-08-24T10:15:37;156786.06;;;35.57
60936;BMP280;46804;51.786;19.520;2023-08-24T10:19:46;156994.97;;;35.52
60936;BMP280;46804;51.786;19.520;2023-08-24T10:23:47;162681.84;;;32.69
60936;BMP280;46804;51.786;19.520;2023-08-24T10:27:49;162658.41;;;32.60
60936;BMP280;46804;51.786;19.520;2023-08-24T10:31:50;161038.47;;;34.67
60936;BMP280;46804;51.786;19.520;2023-08-24T10:35:52;162588.16;;;32.33
60936;BMP280;46804;51.786;19.520;2023-08-24T10:39:52;162533.44;;;32.13
60936;BMP280;46804;51.786;19.520;2023-08-24T10:44:04;162848.56;;;33.32
60936;BMP280;46804;51.786;19.520;2023-08-24T10:48:10;162044.31;;;30.27
60936;BMP280;46804;51.786;19.520;2023-08-24T10:52:30;162219.91;;;30.94
60936;BMP280;46804;51.786;19.520;2023-08-24T10:56:37;162817.28;;;33.20
60936;BMP280;46804;51.786;19.520;2023-08-24T11:00:39;162747.00;;;32.93
60936;BMP280;46804;51.786;19.520;2023-08-24T11:04:40;162856.41;;;33.35
60936;BMP280;46804;51.786;19.520;2023-08-24T11:08:45;161872.41;;;34.39
60936;BMP280;46804;51.786;19.520;2023-08-24T11:13:05;158705.06;;;35.21
60936;BMP280;46804;51.786;19.520;2023-08-24T11:17:20;158897.16;;;35.16
60936;BMP280;46804;51.786;19.520;2023-08-24T11:21:22;147456.44;;;36.92
60936;BMP280;46804;51.786;19.520;2023-08-24T11:25:23;160669.81;;;34.74
60936;BMP280;46804;51.786;19.520;2023-08-24T11:29:24;148254.81;;;36.79
60936;BMP280;46804;51.786;19.520;2023-08-24T11:33:35;148203.84;;;36.82
60936;BMP280;46804;51.786;19.520;2023-08-24T11:37:35;153759.97;;;36.03
60936;BMP280;46804;51.786;19.520;2023-08-24T11:41:36;158708.72;;;35.18
60936;BMP280;46804;51.786;19.520;2023-08-24T11:45:37;155809.41;;;35.70
60936;BMP280;46804;51.786;19.520;2023-08-24T11:49:39;149413.75;;;36.64
60936;BMP280;46804;51.786;19.520;2023-08-24T11:53:41;148839.78;;;36.70
60936;BMP280;46804;51.786;19.520;2023-08-24T11:57:42;153492.81;;;36.05
60936;BMP280;46804;51.786;19.520;2023-08-24T12:01:45;158833.50;;;35.16
60936;BMP280;46804;51.786;19.520;2023-08-24T12:05:47;162971.03;;;33.78
60936;BMP280;46804;51.786;19.520;2023-08-24T12:09:47;157606.75;;;35.41
60936;BMP280;46804;51.786;19.520;2023-08-24T12:13:54;157825.03;;;35.38
60936;BMP280;46804;51.786;19.520;2023-08-24T12:17:55;158171.16;;;35.32
60936;BMP280;46804;51.786;19.520;2023-08-24T12:21:56;156960.41;;;35.54
60936;BMP280;46804;51.786;19.520;2023-08-24T12:25:56;159125.09;;;35.13
60936;BMP280;46804;51.786;19.520;2023-08-24T12:30:01;162664.91;;;32.62
60936;BMP280;46804;51.786;19.520;2023-08-24T12:34:04;159997.69;;;34.92
60936;BMP280;46804;51.786;19.520;2023-08-24T12:38:04;148677.69;;;36.73
60936;BMP280;46804;51.786;19.520;2023-08-24T12:42:06;154174.53;;;35.97
60936;BMP280;46804;51.786;19.520;2023-08-24T12:46:06;150595.13;;;36.45
60936;BMP280;46804;51.786;19.520;2023-08-24T12:50:07;152282.09;;;36.24
60936;BMP280;46804;51.786;19.520;2023-08-24T12:54:08;152364.25;;;36.23
60936;BMP280;46804;51.786;19.520;2023-08-24T12:58:09;157194.41;;;35.51
60936;BMP280;46804;51.786;19.520;2023-08-24T13:02:10;162319.38;;;34.22
60936;BMP280;46804;51.786;19.520;2023-08-24T13:06:10;162916.25;;;33.57
60936;BMP280;46804;51.786;19.520;2023-08-24T13:10:11;162948.84;;;33.70
60936;BMP280;46804;51.786;19.520;2023-08-24T13:14:12;160746.47;;;34.72
60936;BMP280;46804;51.786;19.520;2023-08-24T13:18:13;159398.28;;;35.05
60936;BMP280;46804;51.786;19.520;2023-08-24T13:22:13;162646.72;;;32.55
60936;BMP280;46804;51.786;19.520;2023-08-24T13:26:18;162332.63;;;34.20
60936;BMP280;46804;51.786;19.520;2023-08-24T13:30:20;152965.78;;;36.11
60936;BMP280;46804;51.786;19.520;2023-08-24T13:34:21;148560.69;;;36.76
60936;BMP280;46804;51.786;19.520;2023-08-24T13:38:21;155945.19;;;35.69
60936;BMP280;46804;51.786;19.520;2023-08-24T13:42:22;151233.13;;;36.37
60936;BMP280;46804;51.786;19.520;2023-08-24T13:46:23;142965.81;;;37.60
60936;BMP280;46804;51.786;19.520;2023-08-24T13:50:24;153013.75;;;36.11
60936;BMP280;46804;51.786;19.520;2023-08-24T13:54:24;147742.16;;;36.90
60936;BMP280;46804;51.786;19.520;2023-08-24T13:58:26;151390.66;;;36.34
60936;BMP280;46804;51.786;19.520;2023-08-24T14:02:27;152523.03;;;36.21
60936;BMP280;46804;51.786;19.520;2023-08-24T14:06:29;153367.91;;;36.07
60936;BMP280;46804;51.786;19.520;2023-08-24T14:10:30;153923.88;;;35.99
60936;BMP280;46804;51.786;19.520;2023-08-24T14:14:31;162866.78;;;33.39
60936;BMP280;46804;51.786;19.520;2023-08-24T14:18:32;161064.38;;;34.65
60936;BMP280;46804;51.786;19.520;2023-08-24T14:22:33;160509.19;;;34.79
60936;BMP280;46804;51.786;19.520;2023-08-24T14:26:34;159188.00;;;35.10
60936;BMP280;46804;51.786;19.520;2023-08-24T14:30:34;159507.34;;;35.04
60936;BMP280;46804;51.786;19.520;2023-08-24T14:34:35;162068.75;;;34.32
60936;BMP280;46804;51.786;19.520;2023-08-24T14:38:38;162642.66;;;34.09
60936;BMP280;46804;51.786;19.520;2023-08-24T14:42:40;162892.84;;;33.49
60936;BMP280;46804;51.786;19.520;2023-08-24T14:46:40;162787.34;;;33.09
60936;BMP280;46804;51.786;19.520;2023-08-24T14:50:41;162482.72;;;31.93
60936;BMP280;46804;51.786;19.520;2023-08-24T14:54:41;162516.56;;;32.06
60936;BMP280;46804;51.786;19.520;2023-08-24T14:58:42;162515.22;;;32.06
60936;BMP280;46804;51.786;19.520;2023-08-24T15:02:43;162277.13;;;31.15
60936;BMP280;46804;51.786;19.520;2023-08-24T15:06:44;162310.97;;;31.28
60936;BMP280;46804;51.786;19.520;2023-08-24T15:10:44;162157.44;;;30.70
60936;BMP280;46804;51.786;19.520;2023-08-24T15:14:59;162163.91;;;30.73
60936;BMP280;46804;51.786;19.520;2023-08-24T15:19:01;162080.75;;;30.41
60936;BMP280;46804;51.786;19.520;2023-08-24T15:23:02;161959.81;;;29.95
60936;BMP280;46804;51.786;19.520;2023-08-24T15:27:02;161872.66;;;29.62
60936;BMP280;46804;51.786;19.520;2023-08-24T15:31:03;161779.13;;;29.27
60936;BMP280;46804;51.786;19.520;2023-08-24T15:35:05;161877.88;;;29.64
60936;BMP280;46804;51.786;19.520;2023-08-24T15:39:05;161950.72;;;29.92
60936;BMP280;46804;51.786;19.520;2023-08-24T15:43:06;161867.47;;;29.60
60936;BMP280;46804;51.786;19.520;2023-08-24T15:47:07;161805.13;;;29.37
60936;BMP280;46804;51.786;19.520;2023-08-24T15:51:08;161815.50;;;29.40
60936;BMP280;46804;51.786;19.520;2023-08-24T15:55:09;161715.44;;;29.03
60936;BMP280;46804;51.786;19.520;2023-08-24T15:59:13;161716.72;;;29.03
60936;BMP280;46804;51.786;19.520;2023-08-24T16:03:13;161627.16;;;28.69
60936;BMP280;46804;51.786;19.520;2023-08-24T16:07:15;161581.63;;;28.52
60936;BMP280;46804;51.786;19.520;2023-08-24T16:11:16;161547.88;;;28.39
60936;BMP280;46804;51.786;19.520;2023-08-24T16:15:17;161462.19;;;28.06
60936;BMP280;46804;51.786;19.520;2023-08-24T16:19:18;161492.03;;;28.18
60936;BMP280;46804;51.786;19.520;2023-08-24T16:23:19;161469.94;;;28.09
60936;BMP280;46804;51.786;19.520;2023-08-24T16:27:20;161351.81;;;27.65
60936;BMP280;46804;51.786;19.520;2023-08-24T16:31:21;161417.97;;;27.90
60936;BMP280;46804;51.786;19.520;2023-08-24T16:35:21;161364.75;;;27.69
60936;BMP280;46804;51.786;19.520;2023-08-24T16:39:22;161312.84;;;27.50
60936;BMP280;46804;51.786;19.520;2023-08-24T16:43:23;161258.28;;;27.29
60936;BMP280;46804;51.786;19.520;2023-08-24T16:47:24;161254.41;;;27.28
60936;BMP280;46804;51.786;19.520;2023-08-24T16:51:24;161211.56;;;27.11
60936;BMP280;46804;51.786;19.520;2023-08-24T16:55:26;161075.28;;;26.60
60936;BMP280;46804;51.786;19.520;2023-08-24T16:59:27;161064.91;;;26.56
60936;BMP280;46804;51.786;19.520;2023-08-24T17:03:28;161057.13;;;26.53
60936;BMP280;46804;51.786;19.520;2023-08-24T17:07:29;161032.50;;;26.43
60936;BMP280;46804;51.786;19.520;2023-08-24T17:11:30;160983.22;;;26.25
60936;BMP280;46804;51.786;19.520;2023-08-24T17:15:31;160976.72;;;26.22
60936;BMP280;46804;51.786;19.520;2023-08-24T17:19:31;160928.72;;;26.04
60936;BMP280;46804;51.786;19.520;2023-08-24T17:23:32;160883.34;;;25.87
60936;BMP280;46804;51.786;19.520;2023-08-24T17:27:33;160865.19;;;25.80
60936;BMP280;46804;51.786;19.520;2023-08-24T17:31:34;160821.09;;;25.63
60936;BMP280;46804;51.786;19.520;2023-08-24T17:35:34;160735.47;;;25.30
60936;BMP280;46804;51.786;19.520;2023-08-24T17:39:36;160706.97;;;25.20
60936;BMP280;46804;51.786;19.520;2023-08-24T17:43:37;160669.38;;;25.05
60936;BMP280;46804;51.786;19.520;2023-08-24T17:47:40;160651.22;;;24.98
60936;BMP280;46804;51.786;19.520;2023-08-24T17:51:41;160564.38;;;24.65
60936;BMP280;46804;51.786;19.520;2023-08-24T17:55:41;160552.72;;;24.61
60936;BMP280;46804;51.786;19.520;2023-08-24T17:59:43;160512.56;;;24.46
60936;BMP280;46804;51.786;19.520;2023-08-24T18:03:44;160436.09;;;24.17
60936;BMP280;46804;51.786;19.520;2023-08-24T18:07:45;160404.97;;;24.05
60936;BMP280;46804;51.786;19.520;2023-08-24T18:11:45;160398.50;;;24.02
60936;BMP280;46804;51.786;19.520;2023-08-24T18:15:46;160332.44;;;23.77
60936;BMP280;46804;51.786;19.520;2023-08-24T18:19:47;160288.44;;;23.60
60936;BMP280;46804;51.786;19.520;2023-08-24T18:23:48;160232.72;;;23.39
60936;BMP280;46804;51.786;19.520;2023-08-24T18:27:50;160206.78;;;23.29
60936;BMP280;46804;51.786;19.520;2023-08-24T18:31:51;160190.03;;;23.23
60936;BMP280;46804;51.786;19.520;2023-08-24T18:35:52;160178.31;;;23.18
60936;BMP280;46804;51.786;19.520;2023-08-24T18:39:53;160148.56;;;23.07
60936;BMP280;46804;51.786;19.520;2023-08-24T18:43:54;160130.44;;;23.00
60936;BMP280;46804;51.786;19.520;2023-08-24T18:47:55;160087.75;;;22.84
60936;BMP280;46804;51.786;19.520;2023-08-24T18:51:55;160073.44;;;22.79
60936;BMP280;46804;51.786;19.520;2023-08-24T18:55:58;160024.31;;;22.60
60936;BMP280;46804;51.786;19.520;2023-08-24T19:00:00;160043.69;;;22.67
60936;BMP280;46804;51.786;19.520;2023-08-24T19:04:01;160016.50;;;22.57
60936;BMP280;46804;51.786;19.520;2023-08-24T19:08:01;160011.31;;;22.55
60936;BMP280;46804;51.786;19.520;2023-08-24T19:12:03;159986.75;;;22.46
60936;BMP280;46804;51.786;19.520;2023-08-24T19:16:04;159977.69;;;22.42
60936;BMP280;46804;51.786;19.520;2023-08-24T19:20:06;159941.47;;;22.28
60936;BMP280;46804;51.786;19.520;2023-08-24T19:24:07;159925.94;;;22.22
60936;BMP280;46804;51.786;19.520;2023-08-24T19:28:07;159909.09;;;22.16
60936;BMP280;46804;51.786;19.520;2023-08-24T19:32:08;159911.72;;;22.17
60936;BMP280;46804;51.786;19.520;2023-08-24T19:36:09;159903.94;;;22.14
60936;BMP280;46804;51.786;19.520;2023-08-24T19:40:10;159900.09;;;22.13
60936;BMP280;46804;51.786;19.520;2023-08-24T19:44:12;159889.69;;;22.09
60936;BMP280;46804;51.786;19.520;2023-08-24T19:48:12;159878.03;;;22.04
60936;BMP280;46804;51.786;19.520;2023-08-24T19:52:13;159843.13;;;21.91
60936;BMP280;46804;51.786;19.520;2023-08-24T19:56:13;159836.66;;;21.88
60936;BMP280;46804;51.786;19.520;2023-08-24T20:00:14;159818.50;;;21.81
60936;BMP280;46804;51.786;19.520;2023-08-24T20:04:16;159810.78;;;21.79
60936;BMP280;46804;51.786;19.520;2023-08-24T20:08:18;159790.09;;;21.71
60936;BMP280;46804;51.786;19.520;2023-08-24T20:12:19;159744.84;;;21.53
60936;BMP280;46804;51.786;19.520;2023-08-24T20:16:20;159740.94;;;21.52
60936;BMP280;46804;51.786;19.520;2023-08-24T20:20:21;159731.88;;;21.48
60936;BMP280;46804;51.786;19.520;2023-08-24T20:24:22;159669.75;;;21.25
60936;BMP280;46804;51.786;19.520;2023-08-24T20:28:23;159631.00;;;21.10
60936;BMP280;46804;51.786;19.520;2023-08-24T20:32:29;159619.38;;;21.06
60936;BMP280;46804;51.786;19.520;2023-08-24T20:36:30;159588.31;;;20.94
60936;BMP280;46804;51.786;19.520;2023-08-24T20:40:30;159557.31;;;20.82
60936;BMP280;46804;51.786;19.520;2023-08-24T20:44:31;159575.41;;;20.89
60936;BMP280;46804;51.786;19.520;2023-08-24T20:48:32;159557.31;;;20.82
60936;BMP280;46804;51.786;19.520;2023-08-24T20:52:32;159515.91;;;20.66
60936;BMP280;46804;51.786;19.520;2023-08-24T20:56:33;159505.63;;;20.62
60936;BMP280;46804;51.786;19.520;2023-08-24T21:00:34;159496.56;;;20.59
60936;BMP280;46804;51.786;19.520;2023-08-24T21:04:35;159474.53;;;20.50
60936;BMP280;46804;51.786;19.520;2023-08-24T21:08:36;159482.31;;;20.53
60936;BMP280;46804;51.786;19.520;2023-08-24T21:12:37;159482.31;;;20.53
60936;BMP280;46804;51.786;19.520;2023-08-24T21:16:37;159466.78;;;20.47
60936;BMP280;46804;51.786;19.520;2023-08-24T21:20:38;159459.06;;;20.44
60936;BMP280;46804;51.786;19.520;2023-08-24T21:24:39;159428.03;;;20.33
60936;BMP280;46804;51.786;19.520;2023-08-24T21:28:39;159394.41;;;20.20
60936;BMP280;46804;51.786;19.520;2023-08-24T21:32:40;159364.72;;;20.08
60936;BMP280;46804;51.786;19.520;2023-08-24T21:36:41;159333.72;;;19.97
60936;BMP280;46804;51.786;19.520;2023-08-24T21:40:41;159310.44;;;19.88
60936;BMP280;46804;51.786;19.520;2023-08-24T21:44:42;159278.13;;;19.75
60936;BMP280;46804;51.786;19.520;2023-08-24T21:48:44;159274.22;;;19.74
60936;BMP280;46804;51.786;19.520;2023-08-24T21:52:44;159275.50;;;19.74
60936;BMP280;46804;51.786;19.520;2023-08-24T21:56:45;159275.50;;;19.74
60936;BMP280;46804;51.786;19.520;2023-08-24T22:00:46;159260.06;;;19.69
60936;BMP280;46804;51.786;19.520;2023-08-24T22:04:47;159249.72;;;19.65
60936;BMP280;46804;51.786;19.520;2023-08-24T22:08:48;159236.81;;;19.60
60936;BMP280;46804;51.786;19.520;2023-08-24T22:12:48;159208.41;;;19.49
60936;BMP280;46804;51.786;19.520;2023-08-24T22:16:49;159177.38;;;19.37
60936;BMP280;46804;51.786;19.520;2023-08-24T22:20:50;159172.19;;;19.35
60936;BMP280;46804;51.786;19.520;2023-08-24T22:24:50;159151.56;;;19.27
60936;BMP280;46804;51.786;19.520;2023-08-24T22:28:51;159146.41;;;19.25
60936;BMP280;46804;51.786;19.520;2023-08-24T22:32:52;159141.22;;;19.23